Time;durP1;ratioP1;P1;durP2;ratioP2;P2;SDS_P1;SDS_P2;PMS_P1;PMS_P2;Temp;Humidity;BMP_temperature;BMP_pressure;BME280_temperature;BME280_humidity;BME280_pressure;Samples;Min_cycle;Max_cycle;Signal;HPM_P1;HPM_P2
2022/04/21 00:00:50;;;;;;;;;;;12.00;90.70;;;;;;5072427;28;19913;-69
2022/04/21 00:03:16;;;;;;;;;;;12.00;91.10;;;;;;5073175;28;19940;-68
2022/04/21 00:05:41;;;;;;;;;;;11.90;90.90;;;;;;5072700;28;19912;-67
2022/04/21 00:08:07;;;;;;;;;;;11.90;91.00;;;;;;5072741;28;19966;-67
2022/04/21 00:10:32;;;;;;;;;;;11.90;91.20;;;;;;5072602;28;19908;-67
2022/04/21 00:12:58;;;;;;;;;;;11.90;91.10;;;;;;5072519;28;19999;-68
2022/04/21 00:15:24;;;;;;;;;;;11.80;91.20;;;;;;5072502;28;19978;-68
2022/04/21 00:17:50;;;;;;;;;;;11.70;91.60;;;;;;5072406;28;20435;-68
2022/04/21 00:20:15;;;;;;;;;;;11.60;92.10;;;;;;5072185;28;19909;-68
2022/04/21 00:25:26;;;;;;;;;;;11.50;92.80;;;;;;5073079;28;19919;-70
2022/04/21 00:27:52;;;;;;;;;;;11.50;93.10;;;;;;5072644;28;20288;-67
2022/04/21 00:30:18;;;;;;;;;;;11.50;93.10;;;;;;5072384;28;20007;-67
2022/04/21 00:32:44;;;;;;;;;;;11.50;93.40;;;;;;5072158;28;19912;-70
2022/04/21 00:35:11;;;;;;;;;;;11.50;93.50;;;;;;5072342;28;20358;-69
2022/04/21 00:37:43;;;;;;;;;;;11.40;93.80;;;;;;5072131;28;19908;-67
2022/04/21 00:40:09;;;;;;;;;;;11.40;94.00;;;;;;5072602;28;19916;-69
2022/04/21 00:42:35;;;;;;;;;;;11.30;94.10;;;;;;5073234;28;19916;-68
2022/04/21 00:45:00;;;;;;;;;;;11.30;93.90;;;;;;5073119;28;19912;-68
2022/04/21 00:47:26;;;;;;;;;;;11.40;93.80;;;;;;5073211;28;19965;-68
2022/04/21 00:49:51;;;;;;;;;;;11.30;93.90;;;;;;5073146;28;19914;-68
2022/04/21 00:52:17;;;;;;;;;;;11.20;94.20;;;;;;5073083;28;20001;-69
2022/04/21 00:54:42;;;;;;;;;;;11.10;94.30;;;;;;5073094;28;20003;-68
2022/04/21 00:57:08;;;;;;;;;;;11.20;94.30;;;;;;5073130;28;20163;-69
2022/04/21 00:59:34;;;;;;;;;;;11.20;94.50;;;;;;5072456;28;19915;-68
2022/04/21 01:04:46;;;;;;;;;;;11.20;94.60;;;;;;5076218;28;19919;-68
2022/04/21 01:07:11;;;;;;;;;;;11.20;94.90;;;;;;5075937;28;19909;-66
2022/04/21 01:09:40;;;;;;;;;;;11.10;95.00;;;;;;5075858;28;19916;-69
2022/04/21 01:12:09;;;;;;;;;;;11.00;95.20;;;;;;5075444;28;19912;-66
2022/04/21 01:14:37;;;;;;;;;;;10.90;95.20;;;;;;5075862;28;19908;-69
2022/04/21 01:17:03;;;;;;;;;;;10.90;95.40;;;;;;5074439;28;19951;-67
2022/04/21 01:19:28;;;;;;;;;;;10.90;95.50;;;;;;5075323;28;19908;-67
2022/04/21 01:21:54;;;;;;;;;;;10.90;95.80;;;;;;5075411;28;19969;-69
2022/04/21 01:24:19;;;;;;;;;;;10.80;95.90;;;;;;5074327;28;19973;-68
2022/04/21 01:26:46;;;;;;;;;;;10.90;96.00;;;;;;5075346;28;19920;-67
2022/04/21 01:29:12;;;;;;;;;;;10.80;96.10;;;;;;5075223;28;19997;-68
2022/04/21 01:31:38;;;;;;;;;;;10.80;96.10;;;;;;5075461;28;19913;-69
2022/04/21 01:34:03;;;;;;;;;;;10.80;96.60;;;;;;5075531;28;19916;-68
2022/04/21 01:36:29;;;;;;;;;;;10.70;97.00;;;;;;5073887;28;19913;-69
2022/04/21 01:41:38;;;;;;;;;;;10.70;97.50;;;;;;5075278;28;20047;-68
2022/04/21 01:44:03;;;;;;;;;;;10.70;97.90;;;;;;5075485;28;20361;-68
2022/04/21 01:46:29;;;;;;;;;;;10.70;98.10;;;;;;5075316;28;19912;-67
2022/04/21 01:48:54;;;;;;;;;;;10.70;98.20;;;;;;5075277;28;19995;-67
2022/04/21 01:51:20;;;;;;;;;;;10.50;98.50;;;;;;5075206;28;20427;-67
2022/04/21 01:53:45;;;;;;;;;;;10.60;98.70;;;;;;5073832;28;20351;-68
2022/04/21 01:56:11;;;;;;;;;;;10.70;98.40;;;;;;5075026;28;20369;-68
2022/04/21 01:58:36;;;;;;;;;;;10.70;98.20;;;;;;5074882;28;20385;-68
2022/04/21 02:01:02;;;;;;;;;;;10.80;97.90;;;;;;5074440;28;20094;-68
2022/04/21 02:03:32;;;;;;;;;;;10.90;97.40;;;;;;5074755;28;19909;-68
2022/04/21 02:05:57;;;;;;;;;;;10.90;97.30;;;;;;5074901;28;19912;-67
2022/04/21 02:08:23;;;;;;;;;;;11.00;97.20;;;;;;5073323;28;19957;-68
2022/04/21 02:10:49;;;;;;;;;;;10.90;97.00;;;;;;5074391;28;19915;-69
2022/04/21 02:13:14;;;;;;;;;;;10.90;97.20;;;;;;5076021;28;20428;-68
2022/04/21 02:15:40;;;;;;;;;;;10.80;97.20;;;;;;5074668;28;19918;-67
2022/04/21 02:18:05;;;;;;;;;;;10.70;97.50;;;;;;5074761;28;20358;-68
2022/04/21 02:20:30;;;;;;;;;;;10.70;97.70;;;;;;5074533;28;19944;-68
2022/04/21 02:22:56;;;;;;;;;;;10.70;97.80;;;;;;5074198;28;19923;-68
2022/04/21 02:25:22;;;;;;;;;;;10.70;98.10;;;;;;5074092;28;20003;-69
2022/04/21 02:27:48;;;;;;;;;;;10.70;98.40;;;;;;5074290;28;19908;-69
2022/04/21 02:30:14;;;;;;;;;;;10.50;98.50;;;;;;5073825;28;19909;-69
2022/04/21 02:32:40;;;;;;;;;;;10.40;98.90;;;;;;5074220;28;20385;-69
2022/04/21 02:35:07;;;;;;;;;;;10.30;99.30;;;;;;5073983;28;19908;-68
2022/04/21 02:37:46;;;;;;;;;;;10.30;99.60;;;;;;5074352;28;20372;-68
2022/04/21 02:40:12;;;;;;;;;;;10.20;99.80;;;;;;5074031;28;19954;-69
2022/04/21 02:42:38;;;;;;;;;;;10.10;99.90;;;;;;5074272;28;19908;-69
2022/04/21 02:45:04;;;;;;;;;;;10.10;99.90;;;;;;5074008;28;19912;-68
2022/04/21 02:47:30;;;;;;;;;;;10.00;99.90;;;;;;5074669;28;20408;-68
2022/04/21 02:49:55;;;;;;;;;;;10.10;99.90;;;;;;5073795;28;19913;-68
2022/04/21 02:52:21;;;;;;;;;;;10.10;99.90;;;;;;5072642;28;19916;-68
2022/04/21 02:57:31;;;;;;;;;;;10.00;99.90;;;;;;5074325;28;19920;-69
2022/04/21 02:59:58;;;;;;;;;;;9.90;99.90;;;;;;5073689;28;20532;-67
2022/04/21 03:02:23;;;;;;;;;;;9.80;99.90;;;;;;5073450;28;19961;-66
2022/04/21 03:04:49;;;;;;;;;;;9.80;99.90;;;;;;5073399;28;19946;-68
2022/04/21 03:07:17;;;;;;;;;;;9.80;99.90;;;;;;5073643;28;19908;-68
2022/04/21 03:09:43;;;;;;;;;;;9.80;99.90;;;;;;5072114;28;19958;-68
2022/04/21 03:12:09;;;;;;;;;;;9.70;99.90;;;;;;5073621;28;20373;-68
2022/04/21 03:14:37;;;;;;;;;;;9.90;99.90;;;;;;5073729;28;19955;-68
2022/04/21 03:17:06;;;;;;;;;;;9.90;99.90;;;;;;5073765;28;19937;-68
2022/04/21 03:19:31;;;;;;;;;;;10.00;99.90;;;;;;5072381;28;19991;-68
2022/04/21 03:24:41;;;;;;;;;;;9.90;99.90;;;;;;5063377;28;19931;-69
2022/04/21 03:27:06;;;;;;;;;;;10.00;99.90;;;;;;5053176;28;19913;-69
2022/04/21 03:29:37;;;;;;;;;;;10.10;99.90;;;;;;5052712;28;19909;-68
2022/04/21 03:32:07;;;;;;;;;;;10.00;99.90;;;;;;5051715;28;19932;-69
2022/04/21 03:34:32;;;;;;;;;;;10.00;99.90;;;;;;5053008;28;19951;-69
2022/04/21 03:36:58;;;;;;;;;;;10.00;99.90;;;;;;5051369;28;19913;-69
2022/04/21 03:39:23;;;;;;;;;;;9.90;99.90;;;;;;5052625;28;19992;-69
2022/04/21 03:41:55;;;;;;;;;;;9.90;99.90;;;;;;5052860;28;19996;-69
2022/04/21 03:44:21;;;;;;;;;;;9.90;99.90;;;;;;5052767;28;19916;-69
2022/04/21 03:46:46;;;;;;;;;;;10.00;99.90;;;;;;5052347;28;19963;-69
2022/04/21 03:49:12;;;;;;;;;;;10.00;99.90;;;;;;5052518;28;19909;-69
2022/04/21 03:51:37;;;;;;;;;;;10.00;99.90;;;;;;5052876;28;19913;-69
2022/04/21 03:54:04;;;;;;;;;;;9.80;99.90;;;;;;5052303;28;19909;-68
2022/04/21 03:56:29;;;;;;;;;;;9.90;99.90;;;;;;5052741;28;19963;-68
2022/04/21 03:58:55;;;;;;;;;;;9.90;99.90;;;;;;5052453;28;19908;-68
2022/04/21 04:01:20;;;;;;;;;;;10.00;99.90;;;;;;5052183;28;19916;-68
2022/04/21 04:03:46;;;;;;;;;;;10.00;99.90;;;;;;5052248;28;20282;-68
2022/04/21 04:11:40;;;;;;;;;;;10.20;99.90;;;;;;5052374;28;19938;-68
2022/04/21 04:14:05;;;;;;;;;;;10.20;99.90;;;;;;5052158;28;19912;-70
2022/04/21 04:16:35;;;;;;;;;;;10.20;99.90;;;;;;5052164;28;19909;-69
2022/04/21 04:19:03;;;;;;;;;;;10.00;99.90;;;;;;5052374;28;19947;-68
2022/04/21 04:21:29;;;;;;;;;;;9.90;99.90;;;;;;5051936;28;19962;-68
2022/04/21 04:23:54;;;;;;;;;;;9.80;99.90;;;;;;5052031;28;19920;-68
2022/04/21 04:26:20;;;;;;;;;;;9.70;99.90;;;;;;5052107;28;19913;-68
2022/04/21 04:28:45;;;;;;;;;;;9.60;99.90;;;;;;5052139;28;19909;-69
2022/04/21 04:31:10;;;;;;;;;;;9.60;99.90;;;;;;5051888;28;19909;-68
2022/04/21 04:33:36;;;;;;;;;;;9.70;99.90;;;;;;5052226;28;19915;-69
2022/04/21 04:36:02;;;;;;;;;;;9.60;99.90;;;;;;5051465;28;19909;-68
2022/04/21 04:38:28;;;;;;;;;;;9.50;99.90;;;;;;5052009;28;19999;-69
2022/04/21 04:40:53;;;;;;;;;;;9.50;99.90;;;;;;5051483;28;19944;-68
2022/04/21 04:43:19;;;;;;;;;;;9.60;99.90;;;;;;5052206;28;20410;-68
2022/04/21 04:48:28;;;;;;;;;;;9.80;99.90;;;;;;5052051;28;19969;-69
2022/04/21 04:50:54;;;;;;;;;;;9.70;99.90;;;;;;5051620;28;20386;-68
2022/04/21 04:53:19;;;;;;;;;;;9.80;99.90;;;;;;5051529;28;19916;-68
2022/04/21 04:55:46;;;;;;;;;;;9.80;99.90;;;;;;5050552;28;19909;-69
2022/04/21 04:58:11;;;;;;;;;;;9.70;99.90;;;;;;5051897;28;20012;-68
2022/04/21 05:00:36;;;;;;;;;;;9.70;99.90;;;;;;5051655;28;20381;-69
2022/04/21 05:03:02;;;;;;;;;;;9.70;99.90;;;;;;5051226;28;19948;-68
2022/04/21 05:05:28;;;;;;;;;;;9.70;99.90;;;;;;5051513;28;20347;-68
2022/04/21 05:07:53;;;;;;;;;;;9.80;99.90;;;;;;5052166;28;19909;-68
2022/04/21 05:10:21;;;;;;;;;;;9.80;99.90;;;;;;5051370;28;20350;-69
2022/04/21 05:12:46;;;;;;;;;;;9.90;99.90;;;;;;5051553;28;19909;-69
2022/04/21 05:15:12;;;;;;;;;;;10.00;99.90;;;;;;5051631;28;19916;-68
2022/04/21 05:17:37;;;;;;;;;;;10.00;99.90;;;;;;5050160;28;20326;-69
2022/04/21 05:20:03;;;;;;;;;;;10.00;99.90;;;;;;5050436;28;19909;-68
2022/04/21 05:22:37;;;;;;;;;;;10.00;99.90;;;;;;5056039;28;19924;-68
2022/04/21 05:25:04;;;;;;;;;;;10.10;99.90;;;;;;5066254;28;19916;-68
2022/04/21 05:27:30;;;;;;;;;;;10.10;99.90;;;;;;5049689;28;19917;-68
2022/04/21 05:32:55;;;;;;;;;;;10.20;99.90;;;;;;5046357;28;20388;-68
2022/04/21 05:35:20;;;;;;;;;;;10.20;99.90;;;;;;5070599;28;19992;-67
2022/04/21 05:37:46;;;;;;;;;;;10.30;99.90;;;;;;5069359;28;20372;-68
2022/04/21 05:40:12;;;;;;;;;;;10.30;99.90;;;;;;5050932;28;20274;-68
2022/04/21 05:42:38;;;;;;;;;;;10.20;99.90;;;;;;5049944;28;19913;-68
2022/04/21 05:45:04;;;;;;;;;;;10.20;99.90;;;;;;5050545;28;19913;-69
2022/04/21 05:47:31;;;;;;;;;;;10.30;99.80;;;;;;5049753;28;20247;-68
2022/04/21 05:49:57;;;;;;;;;;;10.30;99.50;;;;;;5051578;28;20259;-67
2022/04/21 05:52:23;;;;;;;;;;;10.40;99.40;;;;;;5053223;28;20003;-68
2022/04/21 05:54:48;;;;;;;;;;;10.40;99.30;;;;;;5052322;28;19912;-68
2022/04/21 05:57:14;;;;;;;;;;;10.40;98.90;;;;;;5052940;28;19913;-68
2022/04/21 05:59:39;;;;;;;;;;;10.50;98.90;;;;;;5052439;28;19909;-68
2022/04/21 06:02:07;;;;;;;;;;;10.60;98.70;;;;;;5052936;28;19912;-69
2022/04/21 06:04:32;;;;;;;;;;;10.60;98.40;;;;;;5052958;28;19909;-68
2022/04/21 06:06:58;;;;;;;;;;;10.70;98.30;;;;;;5052316;28;19908;-68
2022/04/21 06:09:24;;;;;;;;;;;10.80;98.00;;;;;;5050175;28;19909;-68
2022/04/21 06:11:52;;;;;;;;;;;10.70;97.70;;;;;;5052519;28;20392;-68
2022/04/21 06:14:17;;;;;;;;;;;10.70;97.60;;;;;;5052682;28;19912;-68
2022/04/21 06:16:43;;;;;;;;;;;10.80;97.40;;;;;;5052495;28;19915;-68
2022/04/21 06:19:08;;;;;;;;;;;10.80;97.40;;;;;;5052399;28;19909;-67
2022/04/21 06:21:34;;;;;;;;;;;10.80;97.10;;;;;;5052504;28;19912;-67
2022/04/21 06:24:00;;;;;;;;;;;11.00;96.70;;;;;;5051135;28;19917;-68
2022/04/21 06:26:25;;;;;;;;;;;11.00;96.30;;;;;;5052729;28;19973;-69
2022/04/21 06:28:51;;;;;;;;;;;11.10;95.90;;;;;;5052098;28;19916;-69
2022/04/21 06:31:17;;;;;;;;;;;11.20;95.50;;;;;;5070180;28;20412;-70
2022/04/21 06:33:42;;;;;;;;;;;11.30;95.20;;;;;;5071802;28;19909;-70
2022/04/21 06:36:08;;;;;;;;;;;11.40;94.80;;;;;;5072185;28;19960;-69
2022/04/21 06:38:33;;;;;;;;;;;11.40;94.40;;;;;;5072418;28;19958;-69
2022/04/21 06:40:59;;;;;;;;;;;11.50;93.90;;;;;;5071623;28;19962;-70
2022/04/21 06:48:52;;;;;;;;;;;11.70;93.40;;;;;;5053559;28;19962;-70
2022/04/21 06:51:18;;;;;;;;;;;11.70;93.20;;;;;;5064983;28;20368;-69
2022/04/21 06:53:43;;;;;;;;;;;11.70;93.30;;;;;;5072923;28;19915;-69
2022/04/21 06:56:10;;;;;;;;;;;11.80;93.40;;;;;;5073306;28;20270;-69
2022/04/21 06:58:36;;;;;;;;;;;11.80;93.30;;;;;;5073529;28;20266;-70
2022/04/21 07:01:01;;;;;;;;;;;11.80;93.40;;;;;;5072355;28;19908;-69
2022/04/21 07:03:27;;;;;;;;;;;11.90;93.50;;;;;;5073023;28;20340;-72
2022/04/21 07:05:55;;;;;;;;;;;12.00;93.40;;;;;;5071628;28;20307;-68
2022/04/21 07:08:21;;;;;;;;;;;12.10;93.40;;;;;;5072620;28;19915;-69
2022/04/21 07:10:46;;;;;;;;;;;12.20;93.30;;;;;;5072517;28;19912;-69
2022/04/21 07:13:12;;;;;;;;;;;12.20;93.10;;;;;;5072981;28;19954;-68
2022/04/21 07:15:41;;;;;;;;;;;12.40;93.10;;;;;;5072307;28;19958;-71
2022/04/21 07:18:08;;;;;;;;;;;12.40;93.00;;;;;;5073269;28;19920;-69
2022/04/21 07:20:33;;;;;;;;;;;12.50;92.90;;;;;;5071165;28;19909;-69
2022/04/21 07:22:59;;;;;;;;;;;12.50;92.80;;;;;;5072523;28;19923;-70
2022/04/21 07:25:24;;;;;;;;;;;12.50;92.80;;;;;;5072139;28;19919;-69
2022/04/21 07:27:49;;;;;;;;;;;12.40;93.10;;;;;;5072168;28;19909;-69
2022/04/21 07:30:15;;;;;;;;;;;12.40;93.10;;;;;;5062538;28;19915;-69
2022/04/21 07:32:43;;;;;;;;;;;12.60;93.10;;;;;;5052207;28;19948;-70
2022/04/21 07:35:09;;;;;;;;;;;12.70;92.90;;;;;;5052322;28;19909;-69
2022/04/21 07:37:37;;;;;;;;;;;12.90;92.60;;;;;;5051957;28;20332;-68
2022/04/21 07:40:03;;;;;;;;;;;13.00;92.20;;;;;;5071973;28;19909;-68
2022/04/21 07:42:29;;;;;;;;;;;13.10;91.50;;;;;;5059852;28;20578;-68
2022/04/21 07:44:57;;;;;;;;;;;13.20;90.70;;;;;;5052068;28;19913;-68
2022/04/21 07:47:22;;;;;;;;;;;13.30;89.90;;;;;;5051853;28;19909;-68
2022/04/21 07:49:48;;;;;;;;;;;13.50;89.80;;;;;;5051846;28;20597;-68
2022/04/21 07:55:16;;;;;;;;;;;13.60;87.10;;;;;;5052336;28;19916;-68
2022/04/21 07:57:43;;;;;;;;;;;13.60;85.40;;;;;;5052132;28;19916;-69
2022/04/21 08:00:09;;;;;;;;;;;13.40;83.50;;;;;;5051628;28;19916;-70
2022/04/21 08:02:34;;;;;;;;;;;13.50;83.80;;;;;;5051654;28;19915;-69
2022/04/21 08:05:00;;;;;;;;;;;13.50;82.60;;;;;;5052152;28;19912;-68
2022/04/21 08:07:25;;;;;;;;;;;13.70;82.20;;;;;;5056144;28;20385;-68
2022/04/21 08:09:51;;;;;;;;;;;13.70;81.40;;;;;;5052583;28;20313;-69
2022/04/21 08:12:16;;;;;;;;;;;13.80;80.80;;;;;;5052173;28;19909;-71
2022/04/21 08:14:42;;;;;;;;;;;13.70;78.60;;;;;;5052291;28;19915;-68
2022/04/21 08:17:08;;;;;;;;;;;13.90;79.40;;;;;;5051792;28;19996;-68
2022/04/21 08:19:33;;;;;;;;;;;14.00;77.50;;;;;;5050161;28;19909;-68
2022/04/21 08:21:59;;;;;;;;;;;13.90;74.90;;;;;;5051343;28;19920;-69
2022/04/21 08:32:41;;;;;;;;;;;14.10;70.50;;;;;;5071757;28;19914;-69
2022/04/21 08:35:07;;;;;;;;;;;14.00;69.00;;;;;;5069832;28;20401;-69
2022/04/21 08:37:35;;;;;;;;;;;14.10;69.20;;;;;;5071243;28;19912;-68
2022/04/21 08:40:01;;;;;;;;;;;14.30;67.80;;;;;;5070871;28;19916;-69
2022/04/21 08:42:29;;;;;;;;;;;14.30;61.50;;;;;;5071106;28;19919;-68
2022/04/21 08:44:56;;;;;;;;;;;14.30;61.70;;;;;;5071479;28;19912;-69
2022/04/21 08:47:22;;;;;;;;;;;14.40;62.60;;;;;;5071557;28;19974;-69
2022/04/21 08:49:49;;;;;;;;;;;14.50;64.00;;;;;;5071063;28;20015;-69
2022/04/21 08:52:15;;;;;;;;;;;14.30;64.20;;;;;;5069717;28;19909;-69
2022/04/21 08:54:41;;;;;;;;;;;14.40;64.90;;;;;;5069904;28;19909;-69
2022/04/21 08:57:08;;;;;;;;;;;14.50;65.50;;;;;;5071339;28;19912;-69
2022/04/21 08:59:33;;;;;;;;;;;14.60;66.00;;;;;;5071013;28;20381;-69
2022/04/21 09:01:59;;;;;;;;;;;14.70;66.30;;;;;;5071178;28;19916;-69
2022/04/21 09:04:24;;;;;;;;;;;14.80;65.10;;;;;;5070091;28;19958;-69
2022/04/21 09:06:50;;;;;;;;;;;15.00;65.30;;;;;;5070981;28;19908;-69
2022/04/21 09:09:17;;;;;;;;;;;15.10;65.10;;;;;;5070719;28;19913;-69
2022/04/21 09:11:43;;;;;;;;;;;15.30;64.90;;;;;;5070994;28;19994;-70
2022/04/21 09:14:16;;;;;;;;;;;15.40;65.10;;;;;;5071345;28;20470;-70
2022/04/21 09:16:41;;;;;;;;;;;15.50;64.80;;;;;;5071192;28;20440;-70
2022/04/21 09:19:07;;;;;;;;;;;15.60;64.60;;;;;;5070703;28;20020;-69
2022/04/21 09:21:39;;;;;;;;;;;15.60;64.50;;;;;;5069897;28;20369;-70
2022/04/21 09:24:19;;;;;;;;;;;15.70;63.80;;;;;;5072577;28;19981;-70
2022/04/21 09:26:45;;;;;;;;;;;15.60;63.70;;;;;;5074765;28;19919;-70
2022/04/21 09:29:13;;;;;;;;;;;15.50;64.50;;;;;;5073976;28;19919;-70
2022/04/21 09:31:42;;;;;;;;;;;15.50;64.90;;;;;;5054555;28;20292;-70
2022/04/21 09:34:08;;;;;;;;;;;15.60;64.70;;;;;;5055141;28;20324;-70
2022/04/21 09:36:33;;;;;;;;;;;15.60;64.20;;;;;;5054579;28;19909;-70
2022/04/21 09:39:00;;;;;;;;;;;15.70;64.30;;;;;;5054207;28;20268;-70
2022/04/21 09:41:30;;;;;;;;;;;15.50;64.00;;;;;;5058513;28;19915;-69
2022/04/21 09:46:07;;;;;;;;;;;15.60;64.50;;;;;;5075368;28;19966;-70
2022/04/21 09:46:50;;;;;;;;;;;15.70;65.00;;;;;;5074495;28;19912;-69
2022/04/21 09:49:32;;;;;;;;;;;15.80;65.60;;;;;;5073122;28;19928;-70
2022/04/21 09:51:57;;;;;;;;;;;15.80;65.30;;;;;;5075675;28;20343;-70
2022/04/21 09:54:27;;;;;;;;;;;15.80;66.30;;;;;;5074407;28;19912;-69
2022/04/21 09:56:53;;;;;;;;;;;15.80;65.40;;;;;;5074065;28;19915;-69
2022/04/21 09:59:19;;;;;;;;;;;16.10;65.50;;;;;;5073860;28;19908;-70
2022/04/21 10:01:44;;;;;;;;;;;15.80;64.60;;;;;;5073769;28;19986;-70
2022/04/21 10:04:13;;;;;;;;;;;15.60;65.60;;;;;;5074498;28;19955;-70
2022/04/21 10:06:39;;;;;;;;;;;15.40;65.30;;;;;;5073992;28;20553;-70
2022/04/21 10:09:05;;;;;;;;;;;15.50;64.60;;;;;;5073807;28;20491;-69
2022/04/21 10:11:31;;;;;;;;;;;15.40;63.20;;;;;;5073391;28;19983;-70
2022/04/21 10:13:56;;;;;;;;;;;15.60;63.40;;;;;;5074440;28;19948;-70
2022/04/21 10:16:22;;;;;;;;;;;15.60;63.30;;;;;;5073794;28;20065;-69
2022/04/21 10:18:50;;;;;;;;;;;15.60;63.80;;;;;;5073773;28;19913;-69
2022/04/21 10:21:24;;;;;;;;;;;15.90;64.20;;;;;;5073533;28;19916;-70
2022/04/21 10:23:50;;;;;;;;;;;15.90;64.20;;;;;;5073572;28;19924;-69
2022/04/21 10:26:32;;;;;;;;;;;15.90;65.10;;;;;;5073475;28;20288;-73
2022/04/21 10:28:58;;;;;;;;;;;15.70;66.50;;;;;;5069452;28;19955;-72
2022/04/21 10:31:30;;;;;;;;;;;15.90;67.40;;;;;;5071784;28;19909;-70
2022/04/21 10:33:57;;;;;;;;;;;15.60;67.70;;;;;;5072310;28;19915;-70
2022/04/21 10:36:41;;;;;;;;;;;15.10;68.90;;;;;;5071990;28;19905;-70
2022/04/21 10:39:16;;;;;;;;;;;15.10;69.20;;;;;;5072744;28;19913;-69
2022/04/21 10:41:42;;;;;;;;;;;15.30;69.10;;;;;;5072986;28;19958;-71
2022/04/21 10:44:26;;;;;;;;;;;15.40;68.50;;;;;;5072893;28;19912;-70
2022/04/21 10:47:10;;;;;;;;;;;15.40;68.80;;;;;;5072835;28;19999;-70
2022/04/21 10:49:55;;;;;;;;;;;15.60;68.20;;;;;;5072174;28;19908;-69
2022/04/21 10:57:46;;;;;;;;;;;16.10;67.30;;;;;;5072177;28;19973;-68
2022/04/21 11:00:24;;;;;;;;;;;16.10;67.90;;;;;;5072744;28;19913;-71
2022/04/21 11:03:00;;;;;;;;;;;16.20;68.20;;;;;;5073346;28;19934;-68
2022/04/21 11:05:30;;;;;;;;;;;16.30;68.30;;;;;;5072310;28;19952;-69
2022/04/21 11:07:56;;;;;;;;;;;16.20;68.40;;;;;;5073542;28;20494;-69
2022/04/21 11:10:39;;;;;;;;;;;15.90;69.20;;;;;;5073040;28;19916;-69
2022/04/21 11:13:06;;;;;;;;;;;15.80;70.00;;;;;;5073200;28;19909;-69
2022/04/21 11:15:31;;;;;;;;;;;15.90;69.90;;;;;;5072826;28;19931;-68
2022/04/21 11:17:58;;;;;;;;;;;15.90;69.70;;;;;;5073268;28;19916;-68
2022/04/21 11:20:25;;;;;;;;;;;15.60;70.80;;;;;;5072871;28;20011;-68
2022/04/21 11:22:51;;;;;;;;;;;15.40;71.60;;;;;;5073307;28;20004;-69
2022/04/21 11:25:16;;;;;;;;;;;15.10;72.70;;;;;;5073317;28;20002;-69
2022/04/21 11:27:43;;;;;;;;;;;15.30;73.50;;;;;;5072934;28;19915;-69
2022/04/21 11:30:09;;;;;;;;;;;15.70;73.40;;;;;;5064187;28;20382;-69
2022/04/21 11:32:35;;;;;;;;;;;15.90;72.80;;;;;;5053083;28;19987;-70
2022/04/21 11:35:05;;;;;;;;;;;16.10;72.60;;;;;;5052877;28;20361;-69
2022/04/21 11:38:03;;;;;;;;;;;16.20;72.30;;;;;;5052583;28;19908;-69
2022/04/21 11:40:32;;;;;;;;;;;16.50;72.30;;;;;;5010148;28;19913;-70
2022/04/21 11:42:59;;;;;;;;;;;16.60;71.80;;;;;;5026194;28;19909;-69
2022/04/21 11:45:25;;;;;;;;;;;16.70;71.90;;;;;;5030137;28;19941;-70
2022/04/21 11:47:51;;;;;;;;;;;16.90;71.90;;;;;;5029472;28;19916;-69
2022/04/21 11:50:19;;;;;;;;;;;16.70;71.60;;;;;;5029975;28;19910;-70
2022/04/21 11:52:46;;;;;;;;;;;16.90;72.10;;;;;;5029819;28;19939;-70
2022/04/21 11:55:15;;;;;;;;;;;17.00;72.50;;;;;;5030172;28;19909;-70
2022/04/21 11:57:41;;;;;;;;;;;16.60;72.70;;;;;;5029810;28;20325;-68
2022/04/21 12:00:08;;;;;;;;;;;16.70;73.80;;;;;;5029822;28;19952;-68
2022/04/21 12:08:03;;;;;;;;;;;17.00;73.30;;;;;;5029901;28;20444;-69
2022/04/21 12:10:29;;;;;;;;;;;17.40;73.30;;;;;;5029243;28;19964;-69
2022/04/21 12:12:54;;;;;;;;;;;17.50;72.80;;;;;;5029819;28;19910;-70
2022/04/21 12:15:29;;;;;;;;;;;17.50;72.60;;;;;;5034042;28;19908;-70
2022/04/21 12:18:01;;;;;;;;;;;17.60;72.70;;;;;;5051936;28;20413;-70
2022/04/21 12:20:27;;;;;;;;;;;17.80;72.60;;;;;;5051636;28;19909;-70
2022/04/21 12:22:53;;;;;;;;;;;17.50;73.00;;;;;;5051512;28;19923;-70
2022/04/21 12:25:19;;;;;;;;;;;17.30;73.50;;;;;;5051869;28;19912;-68
2022/04/21 12:27:45;;;;;;;;;;;17.30;74.00;;;;;;5052084;28;19944;-69
2022/04/21 12:30:15;;;;;;;;;;;17.40;74.10;;;;;;5059816;28;19995;-70
2022/04/21 12:32:47;;;;;;;;;;;17.20;74.80;;;;;;5071896;28;20026;-68
2022/04/21 12:35:13;;;;;;;;;;;17.10;74.80;;;;;;5072093;28;19959;-68
2022/04/21 12:37:40;;;;;;;;;;;16.80;75.30;;;;;;5071313;28;20330;-70
2022/04/21 12:40:07;;;;;;;;;;;16.70;76.30;;;;;;5071320;28;19962;-70
2022/04/21 12:42:33;;;;;;;;;;;16.90;76.50;;;;;;5058888;28;19920;-69
2022/04/21 12:44:58;;;;;;;;;;;16.90;76.40;;;;;;5051221;28;19913;-70
2022/04/21 12:47:24;;;;;;;;;;;16.90;76.10;;;;;;5051427;28;19932;-70
2022/04/21 12:49:55;;;;;;;;;;;17.00;76.40;;;;;;5051036;28;19909;-70
2022/04/21 12:52:27;;;;;;;;;;;17.10;76.20;;;;;;5051194;28;19909;-70
2022/04/21 12:54:53;;;;;;;;;;;17.20;76.50;;;;;;5051552;28;19971;-70
2022/04/21 12:57:18;;;;;;;;;;;17.20;76.80;;;;;;5052180;28;20338;-70
2022/04/21 12:59:47;;;;;;;;;;;17.20;76.40;;;;;;5055610;28;20688;-71
2022/04/21 13:02:13;;;;;;;;;;;17.20;76.80;;;;;;5055395;28;19908;-68
2022/04/21 13:04:39;;;;;;;;;;;17.30;77.40;;;;;;5055454;28;19909;-69
2022/04/21 13:07:04;;;;;;;;;;;17.60;76.90;;;;;;5055772;28;19909;-68
2022/04/21 13:09:31;;;;;;;;;;;17.70;76.50;;;;;;5055067;28;20644;-70
2022/04/21 13:11:57;;;;;;;;;;;17.90;76.20;;;;;;5053998;28;19909;-70
2022/04/21 13:14:22;;;;;;;;;;;18.10;75.90;;;;;;5055996;28;20347;-69
2022/04/21 13:16:48;;;;;;;;;;;18.10;75.20;;;;;;5056844;28;19908;-70
2022/04/21 13:19:13;;;;;;;;;;;18.10;75.20;;;;;;5055219;28;19963;-70
2022/04/21 13:21:57;;;;;;;;;;;18.40;74.90;;;;;;5055013;28;19909;-70
2022/04/21 13:24:26;;;;;;;;;;;18.30;74.50;;;;;;5055455;28;20267;-70
2022/04/21 13:26:52;;;;;;;;;;;18.40;74.30;;;;;;5055120;28;19919;-69
2022/04/21 13:29:18;;;;;;;;;;;18.10;74.90;;;;;;5055614;28;20349;-70
2022/04/21 13:34:27;;;;;;;;;;;18.50;74.70;;;;;;5075229;28;19950;-70
2022/04/21 13:36:53;;;;;;;;;;;18.20;74.50;;;;;;5074792;28;19908;-70
2022/04/21 13:39:19;;;;;;;;;;;18.00;75.30;;;;;;5074188;28;19918;-71
2022/04/21 13:41:46;;;;;;;;;;;18.20;75.60;;;;;;5068731;28;20003;-70
2022/04/21 13:44:12;;;;;;;;;;;18.20;75.30;;;;;;5054832;28;20321;-69
2022/04/21 13:46:37;;;;;;;;;;;18.40;75.40;;;;;;5054772;28;20024;-69
2022/04/21 13:49:04;;;;;;;;;;;18.60;74.90;;;;;;5054352;28;19913;-68
2022/04/21 13:51:29;;;;;;;;;;;18.70;74.30;;;;;;5054475;28;19908;-70
2022/04/21 13:53:55;;;;;;;;;;;18.80;74.10;;;;;;5054615;28;19932;-70
2022/04/21 13:56:21;;;;;;;;;;;18.50;74.10;;;;;;5054618;28;20290;-68
2022/04/21 13:58:47;;;;;;;;;;;18.50;74.30;;;;;;5054437;28;19909;-68
2022/04/21 14:01:12;;;;;;;;;;;18.40;74.70;;;;;;5054184;28;19909;-69
2022/04/21 14:03:38;;;;;;;;;;;18.40;75.50;;;;;;5054016;28;19917;-69
2022/04/21 14:06:07;;;;;;;;;;;18.60;75.10;;;;;;5054520;28;20005;-69
2022/04/21 14:08:36;;;;;;;;;;;18.70;75.10;;;;;;5054718;28;19909;-70
2022/04/21 14:11:02;;;;;;;;;;;18.90;74.80;;;;;;5053432;28;19909;-68
2022/04/21 14:13:27;;;;;;;;;;;19.10;74.40;;;;;;5054159;28;19955;-69
2022/04/21 14:15:53;;;;;;;;;;;19.40;73.90;;;;;;5054654;28;20296;-68
2022/04/21 14:18:19;;;;;;;;;;;19.30;73.50;;;;;;5054454;28;20366;-70
2022/04/21 14:20:44;;;;;;;;;;;19.00;74.70;;;;;;5054132;28;19916;-68
2022/04/21 14:23:10;;;;;;;;;;;19.20;74.50;;;;;;5053680;28;20381;-68
2022/04/21 14:25:35;;;;;;;;;;;18.90;74.00;;;;;;5053967;28;19921;-68
2022/04/21 14:28:01;;;;;;;;;;;18.80;75.00;;;;;;5054153;28;19915;-69
2022/04/21 14:30:27;;;;;;;;;;;18.90;74.60;;;;;;5064386;28;19909;-69
2022/04/21 14:32:54;;;;;;;;;;;18.90;74.70;;;;;;5074119;28;19916;-69
2022/04/21 14:35:22;;;;;;;;;;;18.50;75.60;;;;;;5046359;22;19948;-70
2022/04/21 14:46:17;;;;;;;;;;;18.60;75.80;;;;;;4974450;28;20342;-70
2022/04/21 14:48:43;;;;;;;;;;;18.90;76.10;;;;;;4996685;28;19918;-70
2022/04/21 14:51:08;;;;;;;;;;;19.20;74.80;;;;;;4997002;28;19917;-69
2022/04/21 14:53:34;;;;;;;;;;;19.30;74.30;;;;;;4995683;28;20060;-68
2022/04/21 14:55:59;;;;;;;;;;;19.60;74.20;;;;;;4996496;28;19910;-69
2022/04/21 14:58:25;;;;;;;;;;;19.50;73.90;;;;;;4996026;28;19910;-69
2022/04/21 15:00:50;;;;;;;;;;;19.60;74.40;;;;;;4994355;28;19913;-68
2022/04/21 15:03:17;;;;;;;;;;;19.70;72.80;;;;;;4994806;28;19916;-68
2022/04/21 15:05:42;;;;;;;;;;;19.50;72.50;;;;;;4995046;28;19946;-68
2022/04/21 15:08:09;;;;;;;;;;;19.10;72.70;;;;;;4996160;28;20395;-68
2022/04/21 15:10:37;;;;;;;;;;;18.80;74.20;;;;;;4995344;28;19968;-67
2022/04/21 15:13:04;;;;;;;;;;;18.50;75.00;;;;;;4996159;28;19910;-68
2022/04/21 15:15:30;;;;;;;;;;;18.50;75.30;;;;;;4995412;28;19914;-69
2022/04/21 15:17:55;;;;;;;;;;;18.40;75.70;;;;;;4996081;28;20263;-67
2022/04/21 15:20:21;;;;;;;;;;;18.60;76.20;;;;;;4994297;28;19917;-68